Time,TemperatureF,DewpointF,PressureIn,WindDirection,WindDirectionDegrees,WindSpeedMPH,WindSpeedGustMPH,Humidity,HourlyPrecipIn,Conditions,Clouds,dailyrainin,SoftwareType,DateUTC
2013-04-10 00:02:00,64.0,-99.9,30.08,North,-999,-999.0,-999.0,-999,-99.99,,,-99.99,,2013-04-10 07:02:00,
2013-04-10 00:12:00,64.0,-99.9,30.08,North,-999,-999.0,-999.0,-999,-99.99,,,-99.99,,2013-04-10 07:12:00,
2013-04-10 00:23:00,65.0,-99.9,30.08,East,97,3.0,4.0,-999,-99.99,,,-99.99,,2013-04-10 07:23:00,
2013-04-10 00:33:00,64.0,-99.9,30.08,ESE,120,4.0,5.0,-999,-99.99,,,-99.99,,2013-04-10 07:33:00,
2013-04-10 00:43:00,63.0,-99.9,30.08,ENE,68,3.0,4.0,-999,-99.99,,,-99.99,,2013-04-10 07:43:00,
2013-04-10 00:52:00,-999.0,-99.9,30.08,WNW,300,4.0,7.0,-999,-99.99,,,-99.99,,2013-04-10 07:52:00,
2013-04-10 01:02:00,65.0,-99.9,30.08,North,-999,-999.0,-999.0,-999,-99.99,,,-99.99,,2013-04-10 08:02:00,
2013-04-10 01:12:00,64.0,-99.9,30.08,North,-999,-999.0,-999.0,-999,-99.99,,,-99.99,,2013-04-10 08:12:00,
2013-04-10 01:22:00,62.0,-99.9,30.08,North,-999,-999.0,-999.0,-999,-99.99,,,-99.99,,2013-04-10 08:22:00,
2013-04-10 01:32:00,-999.0,-99.9,30.08,SW,215,4.0,4.0,-999,-99.99,,,-99.99,,2013-04-10 08:32:00,
2013-04-10 01:43:00,60.0,-99.9,30.08,North,-999,-999.0,-999.0,-999,-99.99,,,-99.99,,2013-04-10 08:43:00,
2013-04-10 01:52:00,-999.0,-99.9,30.08,WNW,300,3.0,4.0,-999,-99.99,,,-99.99,,2013-04-10 08:52:00,
2013-04-10 02:02:00,-999.0,-99.9,30.08,West,270,5.0,7.0,-999,-99.99,,,-99.99,,2013-04-10 09:02:00,
2013-04-10 02:12:00,62.0,-99.9,30.08,North,-999,-999.0,-999.0,-999,-99.99,,,-99.99,,2013-04-10 09:12:00,
2013-04-10 02:33:00,-999.0,-99.9,30.08,SW,215,3.0,5.0,-999,-99.99,,,-99.99,,2013-04-10 09:33:00,
2013-04-10 02:43:00,-999.0,-99.9,30.08,West,278,6.0,9.0,-999,-99.99,,,-99.99,,2013-04-10 09:43:00,
2013-04-10 02:53:00,65.0,-99.9,30.07,North,-999,-999.0,-999.0,-999,-99.99,,,-99.99,,2013-04-10 09:53:00,
2013-04-10 03:03:00,-999.0,-99.9,30.07,WNW,295,6.0,8.0,-999,-99.99,,,-99.99,,2013-04-10 10:03:00,
2013-04-10 03:13:00,63.0,-99.9,30.07,North,-999,-999.0,-999.0,-999,-99.99,,,-99.99,,2013-04-10 10:13:00,
2013-04-10 03:23:00,-999.0,-99.9,30.06,WNW,299,6.0,7.0,-999,-99.99,,,-99.99,,2013-04-10 10:23:00,
2013-04-10 03:33:00,62.0,-99.9,30.06,North,-999,-999.0,-999.0,-999,-99.99,,,-99.99,,2013-04-10 10:33:00,
2013-04-10 03:43:00,62.0,-99.9,30.07,NW,314,3.0,4.0,-999,-99.99,,,-99.99,,2013-04-10 10:43:00,
2013-04-10 03:53:00,-999.0,-99.9,30.07,SSE,147,1.0,3.0,-999,-99.99,,,-99.99,,2013-04-10 10:53:00,
2013-04-10 04:12:00,-999.0,-99.9,30.07,ENE,67,4.0,5.0,-999,-99.99,,,-99.99,,2013-04-10 11:12:00,
2013-04-10 04:22:00,62.0,-99.9,30.08,North,-999,-999.0,-999.0,-999,-99.99,,,-99.99,,2013-04-10 11:22:00,
2013-04-10 04:32:00,63.0,-99.9,30.08,North,-999,-999.0,-999.0,-999,-99.99,,,-99.99,,2013-04-10 11:32:00,
2013-04-10 04:42:00,62.0,-99.9,30.09,North,-999,-999.0,-999.0,-999,-99.99,,,-99.99,,2013-04-10 11:42:00,
2013-04-10 04:53:00,62.0,-99.9,30.09,East,85,1.0,3.0,-999,-99.99,,,-99.99,,2013-04-10 11:53:00,
2013-04-10 05:12:00,62.0,-99.9,30.10,North,2,1.0,2.0,-999,-99.99,,,-99.99,,2013-04-10 12:12:00,
2013-04-10 05:23:00,61.0,-99.9,30.10,North,-999,-999.0,-999.0,-999,-99.99,,,-99.99,,2013-04-10 12:23:00,
2013-04-10 05:33:00,62.0,-99.9,30.10,WNW,288,2.0,3.0,-999,-99.99,,,-99.99,,2013-04-10 12:33:00,
2013-04-10 05:43:00,62.0,-99.9,30.10,NW,311,4.0,4.0,-999,-99.99,,,-99.99,,2013-04-10 12:43:00,
2013-04-10 05:52:00,61.0,-99.9,30.10,NNW,328,3.0,4.0,-999,-99.99,,,-99.99,,2013-04-10 12:52:00,
2013-04-10 06:02:00,61.0,-99.9,30.11,North,-999,-999.0,-999.0,-999,-99.99,,,-99.99,,2013-04-10 13:02:00,
2013-04-10 06:12:00,59.0,-99.9,30.11,North,-999,-999.0,-999.0,-999,-99.99,,,-99.99,,2013-04-10 13:12:00,
2013-04-10 06:23:00,58.0,-99.9,30.12,North,-999,-999.0,-999.0,-999,-99.99,,,-99.99,,2013-04-10 13:23:00,
2013-04-10 06:33:00,-999.0,-99.9,30.12,SSW,207,3.0,3.0,-999,-99.99,,,-99.99,,2013-04-10 13:33:00,
2013-04-10 06:43:00,58.0,-99.9,30.12,North,-999,-999.0,-999.0,-999,-99.99,,,-99.99,,2013-04-10 13:43:00,
2013-04-10 06:53:00,58.0,-99.9,30.12,North,-999,-999.0,-999.0,-999,-99.99,,,-99.99,,2013-04-10 13:53:00,
2013-04-10 07:02:00,-999.0,-99.9,30.13,SSW,211,4.0,5.0,-999,-99.99,,,-99.99,,2013-04-10 14:02:00,
2013-04-10 07:13:00,56.0,-99.9,30.13,North,-999,-999.0,-999.0,-999,-99.99,,,-99.99,,2013-04-10 14:13:00,
2013-04-10 07:22:00,-999.0,-99.9,30.13,SSW,206,2.0,4.0,-999,-99.99,,,-99.99,,2013-04-10 14:22:00,
2013-04-10 07:33:00,58.0,-99.9,30.14,North,-999,-999.0,-999.0,-999,-99.99,,,-99.99,,2013-04-10 14:33:00,
2013-04-10 07:42:00,-999.0,-99.9,30.14,South,190,3.0,4.0,-999,-99.99,,,-99.99,,2013-04-10 14:42:00,
2013-04-10 07:52:00,-999.0,-99.9,30.15,SW,217,3.0,4.0,-999,-99.99,,,-99.99,,2013-04-10 14:52:00,
2013-04-10 08:03:00,-999.0,-99.9,30.15,SW,214,4.0,5.0,-999,-99.99,,,-99.99,,2013-04-10 15:03:00,
2013-04-10 08:12:00,-999.0,-99.9,30.15,SW,216,4.0,6.0,-999,-99.99,,,-99.99,,2013-04-10 15:12:00,
2013-04-10 08:23:00,-999.0,-99.9,30.15,SSW,213,4.0,5.0,-999,-99.99,,,-99.99,,2013-04-10 15:23:00,
2013-04-10 08:33:00,61.0,-99.9,30.15,SW,214,4.0,5.0,-999,-99.99,,,-99.99,,2013-04-10 15:33:00,
2013-04-10 08:43:00,63.0,-99.9,30.16,North,-999,-999.0,-999.0,-999,-99.99,,,-99.99,,2013-04-10 15:43:00,
2013-04-10 09:03:00,-999.0,-99.9,30.16,WSW,250,3.0,4.0,-999,-99.99,,,-99.99,,2013-04-10 16:03:00,
2013-04-10 09:13:00,-999.0,-99.9,30.16,NW,313,4.0,5.0,-999,-99.99,,,-99.99,,2013-04-10 16:13:00,
2013-04-10 09:23:00,66.0,-99.9,30.16,North,-999,-999.0,-999.0,-999,-99.99,,,-99.99,,2013-04-10 16:23:00,
2013-04-10 09:33:00,66.0,-99.9,30.16,North,-999,-999.0,-999.0,-999,-99.99,,,-99.99,,2013-04-10 16:33:00,
2013-04-10 09:43:00,66.0,-99.9,30.16,NNW,339,2.0,4.0,-999,-99.99,,,-99.99,,2013-04-10 16:43:00,
2013-04-10 09:53:00,-999.0,-99.9,30.16,NNW,332,6.0,7.0,-999,-99.99,,,-99.99,,2013-04-10 16:53:00,
2013-04-10 10:03:00,-999.0,-99.9,30.16,NNW,343,5.0,7.0,-999,-99.99,,,-99.99,,2013-04-10 17:03:00,
2013-04-10 10:13:00,-999.0,-99.9,30.17,NNW,330,7.0,8.0,-999,-99.99,,,-99.99,,2013-04-10 17:13:00,
2013-04-10 10:23:00,-999.0,-99.9,30.17,NNW,335,7.0,9.0,-999,-99.99,,,-99.99,,2013-04-10 17:23:00,
2013-04-10 10:34:00,69.0,-99.9,30.17,North,-999,-999.0,-999.0,-999,-99.99,,,-99.99,,2013-04-10 17:34:00,
2013-04-10 10:43:00,69.0,-99.9,30.17,North,-999,-999.0,-999.0,-999,-99.99,,,-99.99,,2013-04-10 17:43:00,
2013-04-10 10:53:00,70.0,-99.9,30.17,NW,312,8.0,11.0,-999,-99.99,,,-99.99,,2013-04-10 17:53:00,
2013-04-10 11:03:00,70.0,-99.9,30.17,North,-999,-999.0,-999.0,-999,-99.99,,,-99.99,,2013-04-10 18:03:00,
2013-04-10 11:12:00,-999.0,-99.9,30.17,NW,316,9.0,12.0,-999,-99.99,,,-99.99,,2013-04-10 18:12:00,
2013-04-10 11:23:00,-999.0,-99.9,30.17,NW,313,8.0,12.0,-999,-99.99,,,-99.99,,2013-04-10 18:23:00,
2013-04-10 11:33:00,72.0,-99.9,30.17,North,-999,-999.0,-999.0,-999,-99.99,,,-99.99,,2013-04-10 18:33:00,
2013-04-10 11:43:00,-999.0,-99.9,30.16,NW,315,10.0,12.0,-999,-99.99,,,-99.99,,2013-04-10 18:43:00,
2013-04-10 11:53:00,-999.0,-99.9,30.16,NW,309,11.0,13.0,-999,-99.99,,,-99.99,,2013-04-10 18:53:00,
2013-04-10 12:03:00,-999.0,-99.9,30.16,NNW,329,11.0,13.0,-999,-99.99,,,-99.99,,2013-04-10 19:03:00,
2013-04-10 12:13:00,74.0,-99.9,30.16,North,-999,-999.0,-999.0,-999,-99.99,,,-99.99,,2013-04-10 19:13:00,
2013-04-10 12:22:00,-999.0,-99.9,30.16,NW,308,9.0,12.0,-999,-99.99,,,-99.99,,2013-04-10 19:22:00,
2013-04-10 12:33:00,-999.0,-99.9,30.15,NW,320,9.0,11.0,-999,-99.99,,,-99.99,,2013-04-10 19:33:00,
2013-04-10 12:42:00,74.0,-99.9,30.15,North,-999,-999.0,-999.0,-999,-99.99,,,-99.99,,2013-04-10 19:42:00,
2013-04-10 12:53:00,-999.0,-99.9,30.14,NW,319,12.0,14.0,-999,-99.99,,,-99.99,,2013-04-10 19:53:00,
2013-04-10 13:03:00,-999.0,-99.9,30.14,NW,320,12.0,14.0,-999,-99.99,,,-99.99,,2013-04-10 20:03:00,
2013-04-10 13:12:00,75.0,-99.9,30.14,NW,324,12.0,15.0,-999,-99.99,,,-99.99,,2013-04-10 20:12:00,
2013-04-10 13:23:00,-999.0,-99.9,30.13,NW,320,11.0,15.0,-999,-99.99,,,-99.99,,2013-04-10 20:23:00,
2013-04-10 13:33:00,-999.0,-99.9,30.13,NW,312,10.0,12.0,-999,-99.99,,,-99.99,,2013-04-10 20:33:00,
2013-04-10 13:43:00,-999.0,-99.9,30.12,NW,307,11.0,14.0,-999,-99.99,,,-99.99,,2013-04-10 20:43:00,
2013-04-10 13:53:00,-999.0,-99.9,30.12,WNW,302,12.0,15.0,-999,-99.99,,,-99.99,,2013-04-10 20:53:00,
2013-04-10 14:03:00,77.0,-99.9,30.12,North,-999,-999.0,-999.0,-999,-99.99,,,-99.99,,2013-04-10 21:03:00,
2013-04-10 14:13:00,77.0,-99.9,30.12,North,-999,-999.0,-999.0,-999,-99.99,,,-99.99,,2013-04-10 21:13:00,
2013-04-10 14:22:00,78.0,-99.9,30.10,North,-999,-999.0,-999.0,-999,-99.99,,,-99.99,,2013-04-10 21:22:00,
2013-04-10 14:33:00,78.0,-99.9,30.10,North,-999,-999.0,-999.0,-999,-99.99,,,-99.99,,2013-04-10 21:33:00,
2013-04-10 14:43:00,-999.0,-99.9,30.10,NW,321,12.0,14.0,-999,-99.99,,,-99.99,,2013-04-10 21:43:00,
2013-04-10 14:53:00,-999.0,-99.9,30.09,NW,312,14.0,16.0,-999,-99.99,,,-99.99,,2013-04-10 21:53:00,
2013-04-10 15:03:00,77.0,-99.9,30.09,North,-999,-999.0,-999.0,-999,-99.99,,,-99.99,,2013-04-10 22:03:00,
2013-04-10 15:13:00,77.0,-99.9,30.09,NW,321,12.0,14.0,-999,-99.99,,,-99.99,,2013-04-10 22:13:00,
2013-04-10 15:23:00,78.0,-99.9,30.08,North,-999,-999.0,-999.0,-999,-99.99,,,-99.99,,2013-04-10 22:23:00,
2013-04-10 15:34:00,-999.0,-99.9,30.08,NW,322,14.0,16.0,-999,-99.99,,,-99.99,,2013-04-10 22:34:00,
2013-04-10 15:43:00,-999.0,-99.9,30.08,NW,311,16.0,20.0,-999,-99.99,,,-99.99,,2013-04-10 22:43:00,
2013-04-10 15:53:00,-999.0,-99.9,30.08,NW,311,19.0,22.0,-999,-99.99,,,-99.99,,2013-04-10 22:53:00,
2013-04-10 16:03:00,-999.0,-99.9,30.08,WNW,290,17.0,22.0,-999,-99.99,,,-99.99,,2013-04-10 23:03:00,
2013-04-10 16:12:00,76.0,-99.9,30.08,North,-999,-999.0,-999.0,-999,-99.99,,,-99.99,,2013-04-10 23:12:00,
2013-04-10 16:22:00,77.0,-99.9,30.08,North,-999,-999.0,-999.0,-999,-99.99,,,-99.99,,2013-04-10 23:22:00,
2013-04-10 16:33:00,-999.0,-99.9,30.08,West,279,17.0,21.0,-999,-99.99,,,-99.99,,2013-04-10 23:33:00,
2013-04-10 16:43:00,-999.0,-99.9,30.07,West,281,15.0,16.0,-999,-99.99,,,-99.99,,2013-04-10 23:43:00,
2013-04-10 16:53:00,-999.0,-99.9,30.06,WNW,298,18.0,20.0,-999,-99.99,,,-99.99,,2013-04-10 23:53:00,
2013-04-10 17:02:00,-999.0,-99.9,30.06,West,270,16.0,19.0,-999,-99.99,,,-99.99,,2013-04-11 00:02:00,
2013-04-10 17:13:00,74.0,-99.9,30.06,North,-999,-999.0,-999.0,-999,-99.99,,,-99.99,,2013-04-11 00:13:00,
2013-04-10 17:23:00,-999.0,-99.9,30.07,WNW,284,19.0,23.0,-999,-99.99,,,-99.99,,2013-04-11 00:23:00,
2013-04-10 17:32:00,73.0,-99.9,30.06,WNW,289,19.0,24.0,-999,-99.99,,,-99.99,,2013-04-11 00:32:00,
2013-04-10 17:43:00,-999.0,-99.9,30.06,WNW,287,20.0,24.0,-999,-99.99,,,-99.99,,2013-04-11 00:43:00,
2013-04-10 17:53:00,72.0,-99.9,30.06,WNW,282,17.0,26.0,-999,-99.99,,,-99.99,,2013-04-11 00:53:00,
2013-04-10 18:12:00,-999.0,-99.9,30.06,West,278,20.0,24.0,-999,-99.99,,,-99.99,,2013-04-11 01:12:00,
2013-04-10 18:22:00,-999.0,-99.9,30.06,West,273,23.0,26.0,-999,-99.99,,,-99.99,,2013-04-11 01:22:00,
2013-04-10 18:33:00,68.0,-99.9,30.06,WNW,282,23.0,28.0,-999,-99.99,,,-99.99,,2013-04-11 01:33:00,
2013-04-10 18:42:00,-999.0,-99.9,30.06,WNW,287,23.0,28.0,-999,-99.99,,,-99.99,,2013-04-11 01:42:00,
2013-04-10 18:52:00,68.0,-99.9,30.06,North,-999,-999.0,-999.0,-999,-99.99,,,-99.99,,2013-04-11 01:52:00,
2013-04-10 19:03:00,68.0,-99.9,30.06,WNW,287,19.0,24.0,-999,-99.99,,,-99.99,,2013-04-11 02:03:00,
2013-04-10 19:13:00,-999.0,-99.9,30.06,WNW,291,21.0,27.0,-999,-99.99,,,-99.99,,2013-04-11 02:13:00,
2013-04-10 19:22:00,66.0,-99.9,30.06,North,-999,-999.0,-999.0,-999,-99.99,,,-99.99,,2013-04-11 02:22:00,
2013-04-10 19:32:00,-999.0,-99.9,30.06,WNW,289,18.0,22.0,-999,-99.99,,,-99.99,,2013-04-11 02:32:00,
2013-04-10 19:42:00,-999.0,-99.9,30.06,WNW,289,18.0,22.0,-999,-99.99,,,-99.99,,2013-04-11 02:42:00,
2013-04-10 19:53:00,66.0,-99.9,30.06,WNW,288,17.0,20.0,-999,-99.99,,,-99.99,,2013-04-11 02:53:00,
2013-04-10 20:02:00,65.0,-99.9,30.06,West,281,18.0,25.0,-999,-99.99,,,-99.99,,2013-04-11 03:02:00,
2013-04-10 20:12:00,-999.0,-99.9,30.05,West,278,21.0,25.0,-999,-99.99,,,-99.99,,2013-04-11 03:12:00,
2013-04-10 20:22:00,63.0,-99.9,30.06,North,-999,-999.0,-999.0,-999,-99.99,,,-99.99,,2013-04-11 03:22:00,
2013-04-10 20:33:00,63.0,-99.9,30.06,North,-999,-999.0,-999.0,-999,-99.99,,,-99.99,,2013-04-11 03:33:00,
2013-04-10 20:43:00,-999.0,-99.9,30.06,WNW,285,17.0,22.0,-999,-99.99,,,-99.99,,2013-04-11 03:43:00,
2013-04-10 20:54:00,-999.0,-99.9,30.06,WNW,283,13.0,19.0,-999,-99.99,,,-99.99,,2013-04-11 03:54:00,
2013-04-10 21:03:00,-999.0,-99.9,30.07,WNW,286,13.0,16.0,-999,-99.99,,,-99.99,,2013-04-11 04:03:00,
2013-04-10 21:13:00,-999.0,-99.9,30.07,WNW,294,10.0,15.0,-999,-99.99,,,-99.99,,2013-04-11 04:13:00,
2013-04-10 21:23:00,-999.0,-99.9,30.07,NW,319,8.0,10.0,-999,-99.99,,,-99.99,,2013-04-11 04:23:00,
2013-04-10 21:33:00,60.0,-99.9,30.08,North,-999,-999.0,-999.0,-999,-99.99,,,-99.99,,2013-04-11 04:33:00,
2013-04-10 21:43:00,59.0,-99.9,30.07,NW,314,6.0,8.0,-999,-99.99,,,-99.99,,2013-04-11 04:43:00,
2013-04-10 21:53:00,-999.0,-99.9,30.08,NNW,347,13.0,14.0,-999,-99.99,,,-99.99,,2013-04-11 04:53:00,
2013-04-10 22:03:00,-999.0,-99.9,30.08,NW,316,14.0,16.0,-999,-99.99,,,-99.99,,2013-04-11 05:03:00,
2013-04-10 22:13:00,56.0,-99.9,30.08,North,-999,-999.0,-999.0,-999,-99.99,,,-99.99,,2013-04-11 05:13:00,
2013-04-10 22:32:00,57.0,-99.9,30.08,NW,315,9.0,10.0,-999,-99.99,,,-99.99,,2013-04-11 05:32:00,
2013-04-10 22:42:00,-999.0,-99.9,30.09,WNW,293,13.0,16.0,-999,-99.99,,,-99.99,,2013-04-11 05:42:00,
2013-04-10 22:52:00,-999.0,-99.9,30.09,NW,309,10.0,12.0,-999,-99.99,,,-99.99,,2013-04-11 05:52:00,
2013-04-10 23:12:00,-999.0,-99.9,30.09,NNW,346,9.0,9.0,-999,-99.99,,,-99.99,,2013-04-11 06:12:00,
2013-04-10 23:22:00,55.0,-99.9,30.09,North,352,8.0,10.0,-999,-99.99,,,-99.99,,2013-04-11 06:22:00,
2013-04-10 23:32:00,55.0,-99.9,30.08,North,-999,-999.0,-999.0,-999,-99.99,,,-99.99,,2013-04-11 06:32:00,
2013-04-10 23:42:00,55.0,-99.9,30.08,NNW,343,8.0,9.0,-999,-99.99,,,-99.99,,2013-04-11 06:42:00,
2013-04-10 23:53:00,55.0,-99.9,30.08,North,-999,-999.0,-999.0,-999,-99.99,,,-99.99,,2013-04-11 06:53:00,